Time;durP1;ratioP1;P1;durP2;ratioP2;P2;SDS_P1;SDS_P2;PMS_P1;PMS_P2;Temp;Humidity;BMP_temperature;BMP_pressure;BME280_temperature;BME280_humidity;BME280_pressure;Samples;Min_cycle;Max_cycle;Signal;HPM_P1;HPM_P2
2023/03/01 00:01:09;;;;;;;0.20;0.20;;;;;;;;;;5057511;28;20611;-87
2023/03/01 00:03:46;;;;;;;0.10;0.10;;;;;;;;;;5057612;28;20229;-89
2023/03/01 00:06:28;;;;;;;0.20;0.20;;;;;;;;;;5059304;28;20222;-89
2023/03/01 00:09:06;;;;;;;0.27;0.20;;;;;;;;;;5060236;28;20287;-90
2023/03/01 00:11:44;;;;;;;0.77;0.40;;;;;;;;;;5061798;28;20234;-89
2023/03/01 00:14:32;;;;;;;0.23;0.23;;;;;;;;;;5058771;28;20230;-91
2023/03/01 00:19:48;;;;;;;0.57;0.40;;;;;;;;;;5055103;28;20232;-91
2023/03/01 00:22:20;;;;;;;1.13;0.40;;;;;;;;;;5061944;28;20301;-90
2023/03/01 00:24:52;;;;;;;0.00;0.00;;;;;;;;;;5069909;28;20261;-90
2023/03/01 00:27:21;;;;;;;0.10;0.10;;;;;;;;;;5070706;28;20226;-91
2023/03/01 00:29:49;;;;;;;0.37;0.37;;;;;;;;;;5087239;28;20248;-91
2023/03/01 00:32:16;;;;;;;0.10;0.10;;;;;;;;;;5091935;28;20214;-90
2023/03/01 00:34:54;;;;;;;0.10;0.10;;;;;;;;;;5092016;28;20226;-91
2023/03/01 00:37:30;;;;;;;0.70;0.67;;;;;;;;;;5091447;28;20198;-90
2023/03/01 00:39:58;;;;;;;0.10;0.10;;;;;;;;;;5088590;28;20266;-91
2023/03/01 00:42:26;;;;;;;0.57;0.57;;;;;;;;;;5091177;28;20213;-90
2023/03/01 00:44:56;;;;;;;0.17;0.17;;;;;;;;;;5075929;28;20206;-91
2023/03/01 00:47:24;;;;;;;0.30;0.30;;;;;;;;;;5075680;28;20203;-91
2023/03/01 00:49:51;;;;;;;0.40;0.40;;;;;;;;;;5074494;28;20226;-89
2023/03/01 00:52:25;;;;;;;0.13;0.13;;;;;;;;;;5077108;28;20191;-89
2023/03/01 00:55:06;;;;;;;0.00;0.00;;;;;;;;;;5077963;28;20258;-89
2023/03/01 00:57:39;;;;;;;0.10;0.10;;;;;;;;;;5084488;28;20206;-90
2023/03/01 01:00:09;;;;;;;0.10;0.10;;;;;;;;;;5098711;28;20233;-91
2023/03/01 01:02:36;;;;;;;0.03;0.03;;;;;;;;;;5098130;28;20187;-89
2023/03/01 01:05:04;;;;;;;0.10;0.10;;;;;;;;;;5097971;28;20229;-90
2023/03/01 01:07:31;;;;;;;1.90;0.80;;;;;;;;;;5098300;28;20236;-90
2023/03/01 01:10:03;;;;;;;0.17;0.17;;;;;;;;;;5095364;28;20217;-90
2023/03/01 01:12:30;;;;;;;0.10;0.10;;;;;;;;;;5093534;28;20209;-90
2023/03/01 01:14:58;;;;;;;0.50;0.47;;;;;;;;;;5094011;28;20231;-89
2023/03/01 01:17:26;;;;;;;0.07;0.07;;;;;;;;;;5094706;28;20191;-89
2023/03/01 01:19:54;;;;;;;0.13;0.13;;;;;;;;;;5094253;28;20236;-91
2023/03/01 01:22:23;;;;;;;0.77;0.37;;;;;;;;;;5094754;28;20297;-91
2023/03/01 01:24:50;;;;;;;0.20;0.20;;;;;;;;;;5094134;28;20190;-91
2023/03/01 01:27:19;;;;;;;0.20;0.20;;;;;;;;;;5089738;28;20214;-89
2023/03/01 01:29:47;;;;;;;0.03;0.03;;;;;;;;;;5072303;28;20206;-89
2023/03/01 01:32:14;;;;;;;0.00;0.00;;;;;;;;;;5070500;28;20247;-91
2023/03/01 01:34:42;;;;;;;4.17;0.83;;;;;;;;;;5073640;28;20293;-91
2023/03/01 01:37:14;;;;;;;0.20;0.20;;;;;;;;;;5073704;28;20191;-89
2023/03/01 01:39:42;;;;;;;0.23;0.23;;;;;;;;;;5076460;28;20213;-90
2023/03/01 01:42:15;;;;;;;0.23;0.17;;;;;;;;;;5093426;28;20203;-90
2023/03/01 01:44:44;;;;;;;0.20;0.20;;;;;;;;;;5095358;28;20289;-90
2023/03/01 01:47:14;;;;;;;0.30;0.30;;;;;;;;;;5094948;28;20182;-90
2023/03/01 01:49:44;;;;;;;0.30;0.30;;;;;;;;;;5094819;28;20647;-92
2023/03/01 01:52:13;;;;;;;0.40;0.40;;;;;;;;;;5096675;28;20213;-91
2023/03/01 01:54:47;;;;;;;0.03;0.03;;;;;;;;;;5096637;28;20223;-90
2023/03/01 01:57:16;;;;;;;0.20;0.13;;;;;;;;;;5093923;28;20304;-91
2023/03/01 01:59:50;;;;;;;0.00;0.00;;;;;;;;;;5093317;28;20221;-92
2023/03/01 02:02:19;;;;;;;0.17;0.17;;;;;;;;;;5089910;28;20222;-91
2023/03/01 02:04:54;;;;;;;0.00;0.00;;;;;;;;;;5095388;28;20269;-90
2023/03/01 02:07:23;;;;;;;0.00;0.00;;;;;;;;;;5094728;28;20195;-92
2023/03/01 02:09:54;;;;;;;0.10;0.10;;;;;;;;;;5093356;28;20252;-92
2023/03/01 02:12:24;;;;;;;0.10;0.10;;;;;;;;;;5095798;28;20208;-88
2023/03/01 02:14:52;;;;;;;0.17;0.17;;;;;;;;;;5094849;28;20230;-89
2023/03/01 02:17:20;;;;;;;0.33;0.33;;;;;;;;;;5090868;28;20273;-90
2023/03/01 02:19:53;;;;;;;0.20;0.20;;;;;;;;;;5087310;28;20195;-91
2023/03/01 02:22:27;;;;;;;0.20;0.20;;;;;;;;;;5082328;28;20199;-91
2023/03/01 02:25:01;;;;;;;0.00;0.00;;;;;;;;;;5080297;28;20634;-90
2023/03/01 02:27:33;;;;;;;0.10;0.10;;;;;;;;;;5080009;28;20229;-91
2023/03/01 02:30:03;;;;;;;0.20;0.20;;;;;;;;;;5078440;28;20198;-91
2023/03/01 02:32:29;;;;;;;0.43;0.43;;;;;;;;;;5079228;28;20257;-92
2023/03/01 02:34:59;;;;;;;0.37;0.37;;;;;;;;;;5079371;28;20228;-92
2023/03/01 02:37:30;;;;;;;0.10;0.10;;;;;;;;;;5077272;28;20210;-93
2023/03/01 02:40:01;;;;;;;0.13;0.13;;;;;;;;;;5078630;28;20199;-90
2023/03/01 02:42:32;;;;;;;2.00;0.43;;;;;;;;;;5076849;28;20646;-91
2023/03/01 02:45:01;;;;;;;0.27;0.27;;;;;;;;;;5077478;28;20187;-92
2023/03/01 02:47:31;;;;;;;0.10;0.10;;;;;;;;;;5080637;28;20655;-92
2023/03/01 02:49:59;;;;;;;0.00;0.00;;;;;;;;;;5093846;28;20178;-91
2023/03/01 02:52:36;;;;;;;0.10;0.10;;;;;;;;;;5096393;28;20175;-91
2023/03/01 02:55:05;;;;;;;0.10;0.10;;;;;;;;;;5096432;28;20222;-89
2023/03/01 02:57:35;;;;;;;0.10;0.10;;;;;;;;;;5091033;28;20218;-90
2023/03/01 03:00:08;;;;;;;0.00;0.00;;;;;;;;;;5076460;28;20259;-91
2023/03/01 03:02:37;;;;;;;0.00;0.00;;;;;;;;;;5077219;28;20180;-91
2023/03/01 03:05:08;;;;;;;0.20;0.20;;;;;;;;;;5073557;28;20598;-91
2023/03/01 03:07:35;;;;;;;1.50;0.40;;;;;;;;;;5074337;28;20171;-92
2023/03/01 03:10:06;;;;;;;0.10;0.10;;;;;;;;;;5077085;28;20288;-91
2023/03/01 03:12:33;;;;;;;0.50;0.50;;;;;;;;;;5074116;28;20210;-92
2023/03/01 03:15:01;;;;;;;0.53;0.40;;;;;;;;;;5071546;28;20703;-91
2023/03/01 03:17:29;;;;;;;0.47;0.23;;;;;;;;;;5070483;28;20286;-91
2023/03/01 03:19:58;;;;;;;3.30;1.00;;;;;;;;;;5072586;28;20191;-91
2023/03/01 03:22:28;;;;;;;0.20;0.20;;;;;;;;;;5070657;28;20222;-92
2023/03/01 03:24:56;;;;;;;0.47;0.33;;;;;;;;;;5073607;28;20203;-93
2023/03/01 03:27:24;;;;;;;0.40;0.40;;;;;;;;;;5067909;28;20223;-91
2023/03/01 03:30:03;;;;;;;0.30;0.30;;;;;;;;;;5070853;28;20286;-90
2023/03/01 03:32:35;;;;;;;1.50;0.63;;;;;;;;;;5071684;28;20226;-92
2023/03/01 03:35:09;;;;;;;0.10;0.10;;;;;;;;;;5070103;28;20238;-91
2023/03/01 03:40:23;;;;;;;3.87;0.50;;;;;;;;;;5072060;28;20195;-91
2023/03/01 03:43:08;;;;;;;0.60;0.27;;;;;;;;;;5073639;28;20214;-91
2023/03/01 03:48:30;;;;;;;0.57;0.20;;;;;;;;;;5073290;28;20174;-92
2023/03/01 03:51:00;;;;;;;0.43;0.43;;;;;;;;;;5073199;28;20195;-92
2023/03/01 03:53:29;;;;;;;0.63;0.63;;;;;;;;;;5071228;28;20206;-91
2023/03/01 03:55:59;;;;;;;0.43;0.43;;;;;;;;;;5069538;28;20226;-91
2023/03/01 03:58:52;;;;;;;0.10;0.10;;;;;;;;;;5070904;28;20265;-92
2023/03/01 04:01:23;;;;;;;0.00;0.00;;;;;;;;;;5069855;28;20199;-92
2023/03/01 04:03:55;;;;;;;0.43;0.43;;;;;;;;;;5070947;28;20195;-90
2023/03/01 04:06:27;;;;;;;0.00;0.00;;;;;;;;;;5069768;28;20206;-92
2023/03/01 04:11:39;;;;;;;0.40;0.40;;;;;;;;;;5039811;23;20251;-91
2023/03/01 04:14:07;;;;;;;0.43;0.43;;;;;;;;;;5024147;28;20204;-90
2023/03/01 04:16:46;;;;;;;0.00;0.00;;;;;;;;;;5021616;28;20204;-92
2023/03/01 04:19:15;;;;;;;0.30;0.30;;;;;;;;;;5021937;28;20199;-92
2023/03/01 04:21:45;;;;;;;0.20;0.20;;;;;;;;;;5028574;28;20379;-89
2023/03/01 04:24:19;;;;;;;0.10;0.10;;;;;;;;;;5030053;28;20213;-91
2023/03/01 04:26:49;;;;;;;0.13;0.13;;;;;;;;;;5032521;28;20192;-90
2023/03/01 04:29:23;;;;;;;0.00;0.00;;;;;;;;;;5030394;28;20283;-90
2023/03/01 04:31:52;;;;;;;0.27;0.27;;;;;;;;;;5021681;28;20201;-92
2023/03/01 04:34:24;;;;;;;0.00;0.00;;;;;;;;;;5025467;28;20211;-92
2023/03/01 04:36:53;;;;;;;0.00;0.00;;;;;;;;;;5019190;28;20275;-91
2023/03/01 04:39:31;;;;;;;0.40;0.40;;;;;;;;;;5020037;28;20283;-92
2023/03/01 04:42:12;;;;;;;1.20;0.43;;;;;;;;;;5022643;28;20677;-93
2023/03/01 04:44:42;;;;;;;0.10;0.10;;;;;;;;;;5019013;28;20204;-91
2023/03/01 04:47:11;;;;;;;0.17;0.17;;;;;;;;;;5018172;28;20200;-91
2023/03/01 04:49:41;;;;;;;0.40;0.40;;;;;;;;;;5018979;28;20205;-90
2023/03/01 04:52:17;;;;;;;0.27;0.23;;;;;;;;;;5017788;28;20220;-91
2023/03/01 04:54:47;;;;;;;1.33;0.37;;;;;;;;;;5017167;28;20267;-93
2023/03/01 04:57:16;;;;;;;0.20;0.20;;;;;;;;;;5016744;28;20200;-90
2023/03/01 04:59:45;;;;;;;0.40;0.40;;;;;;;;;;5018267;28;20322;-92
2023/03/01 05:02:15;;;;;;;0.00;0.00;;;;;;;;;;5017641;28;20197;-92
2023/03/01 05:04:55;;;;;;;;;;;;;;;;;;;;;
2023/03/01 05:07:36;;;;;;;0.30;0.30;;;;;;;;;;5027082;28;20201;-91
2023/03/01 05:10:04;;;;;;;0.30;0.30;;;;;;;;;;5038884;28;20227;-91
2023/03/01 05:12:32;;;;;;;0.00;0.00;;;;;;;;;;5047568;28;20200;-90
2023/03/01 05:15:09;;;;;;;0.53;0.53;;;;;;;;;;5042812;28;20689;-89
2023/03/01 05:17:42;;;;;;;0.53;0.50;;;;;;;;;;5044346;28;20195;-92
2023/03/01 05:20:14;;;;;;;0.57;0.57;;;;;;;;;;5038356;28;20200;-91
2023/03/01 05:22:58;;;;;;;0.73;0.60;;;;;;;;;;5038729;28;20211;-92
2023/03/01 05:25:33;;;;;;;0.30;0.10;;;;;;;;;;5036841;28;20653;-92
2023/03/01 05:28:14;;;;;;;;;;;;;;;;;;;;;
2023/03/01 05:36:38;;;;;;;0.30;0.30;;;;;;;;;;5042653;28;20225;-93
2023/03/01 06:04:37;;;;;;;0.10;0.10;;;;;;;;;;5042183;28;20267;-93
2023/03/01 06:10:17;;;;;;;0.10;0.10;;;;;;;;;;4984386;28;20773;-93
2023/03/01 06:12:46;;;;;;;0.00;0.00;;;;;;;;;;4989607;28;20197;-93
2023/03/01 06:15:18;;;;;;;0.60;0.60;;;;;;;;;;5006097;28;20239;-92
2023/03/01 06:17:51;;;;;;;0.00;0.00;;;;;;;;;;5052614;28;20468;-93
2023/03/01 06:20:27;;;;;;;0.07;0.07;;;;;;;;;;5062465;28;20199;-91
2023/03/01 06:23:02;;;;;;;0.00;0.00;;;;;;;;;;5060733;28;20190;-91
2023/03/01 06:25:52;;;;;;;1.23;0.53;;;;;;;;;;5064228;28;20225;-93
2023/03/01 06:28:38;;;;;;;0.00;0.00;;;;;;;;;;5059475;28;20282;-91
2023/03/01 06:31:08;;;;;;;0.10;0.10;;;;;;;;;;5040502;28;20207;-93
2023/03/01 06:33:37;;;;;;;0.20;0.20;;;;;;;;;;5034606;28;20199;-90
2023/03/01 06:36:09;;;;;;;0.17;0.17;;;;;;;;;;5065614;28;20226;-91
2023/03/01 06:38:44;;;;;;;0.10;0.10;;;;;;;;;;5070633;28;20214;-92
2023/03/01 06:41:14;;;;;;;0.30;0.23;;;;;;;;;;5066130;28;20254;-91
2023/03/01 06:43:54;;;;;;;0.00;0.00;;;;;;;;;;5044042;28;20680;-93
2023/03/01 06:46:22;;;;;;;0.00;0.00;;;;;;;;;;5041250;28;20218;-92
2023/03/01 06:48:55;;;;;;;0.10;0.10;;;;;;;;;;5041511;28;20645;-92
2023/03/01 06:51:23;;;;;;;0.17;0.17;;;;;;;;;;5043040;28;20204;-92
2023/03/01 06:53:54;;;;;;;1.13;0.50;;;;;;;;;;5042920;28;20204;-92
2023/03/01 06:56:22;;;;;;;1.40;0.57;;;;;;;;;;5038668;28;20622;-92
2023/03/01 06:59:05;;;;;;;0.13;0.13;;;;;;;;;;5034553;28;20255;-91
2023/03/01 07:01:36;;;;;;;0.00;0.00;;;;;;;;;;5038394;28;20230;-91
2023/03/01 07:04:11;;;;;;;0.00;0.00;;;;;;;;;;5030636;28;20227;-93
2023/03/01 07:06:42;;;;;;;0.00;0.00;;;;;;;;;;5017602;28;20278;-90
2023/03/01 07:09:11;;;;;;;0.20;0.20;;;;;;;;;;5020392;28;20204;-90
2023/03/01 07:11:40;;;;;;;0.50;0.50;;;;;;;;;;5040694;28;20637;-92
2023/03/01 07:14:09;;;;;;;0.30;0.30;;;;;;;;;;5039750;28;20231;-90
2023/03/01 07:16:41;;;;;;;0.10;0.10;;;;;;;;;;5040819;28;20313;-91
2023/03/01 07:19:15;;;;;;;0.53;0.30;;;;;;;;;;5043451;28;20284;-93
2023/03/01 07:21:46;;;;;;;0.20;0.20;;;;;;;;;;5046043;28;20196;-91
2023/03/01 07:24:25;;;;;;;0.17;0.17;;;;;;;;;;5049349;28;20616;-92
2023/03/01 07:26:59;;;;;;;0.10;0.10;;;;;;;;;;5051495;28;20223;-93
2023/03/01 07:29:45;;;;;;;0.10;0.10;;;;;;;;;;5056991;28;20202;-92
2023/03/01 07:32:18;;;;;;;0.00;0.00;;;;;;;;;;5053510;28;20207;-93
2023/03/01 07:34:49;;;;;;;0.10;0.10;;;;;;;;;;5056277;28;20211;-90
2023/03/01 07:37:22;;;;;;;0.10;0.10;;;;;;;;;;5039626;28;20207;-92
2023/03/01 07:39:59;;;;;;;0.00;0.00;;;;;;;;;;5056452;28;20206;-92
2023/03/01 07:42:27;;;;;;;0.00;0.00;;;;;;;;;;5043926;28;20203;-89
2023/03/01 07:44:59;;;;;;;0.30;0.30;;;;;;;;;;5043201;28;20226;-94
2023/03/01 07:47:29;;;;;;;0.00;0.00;;;;;;;;;;5039854;28;20207;-91
2023/03/01 07:49:57;;;;;;;0.10;0.10;;;;;;;;;;5042469;28;20226;-93
2023/03/01 07:52:38;;;;;;;0.57;0.57;;;;;;;;;;5040036;28;20220;-91
2023/03/01 07:55:09;;;;;;;0.20;0.20;;;;;;;;;;5040319;28;20204;-94
2023/03/01 07:57:42;;;;;;;0.10;0.10;;;;;;;;;;5038647;28;20204;-92
2023/03/01 08:00:30;;;;;;;0.10;0.10;;;;;;;;;;5024542;28;20217;-93
2023/03/01 08:03:12;;;;;;;0.00;0.00;;;;;;;;;;5020378;28;20221;-94
2023/03/01 08:05:40;;;;;;;0.20;0.20;;;;;;;;;;5020594;28;20231;-90
2023/03/01 08:08:16;;;;;;;0.00;0.00;;;;;;;;;;5016375;28;20244;-94
2023/03/01 08:11:09;;;;;;;0.90;0.40;;;;;;;;;;5017291;28;20250;-93
2023/03/01 08:13:41;;;;;;;0.10;0.10;;;;;;;;;;5017529;28;20248;-93
2023/03/01 08:16:23;;;;;;;0.10;0.10;;;;;;;;;;5016891;28;20243;-93
2023/03/01 08:21:52;;;;;;;0.20;0.20;;;;;;;;;;5052224;28;20240;-92
2023/03/01 08:24:45;;;;;;;0.20;0.20;;;;;;;;;;5056656;28;20182;-92
2023/03/01 08:27:20;;;;;;;0.37;0.37;;;;;;;;;;5056463;28;20184;-90
2023/03/01 08:29:57;;;;;;;0.10;0.10;;;;;;;;;;5056721;28;20223;-91
2023/03/01 08:32:37;;;;;;;0.00;0.00;;;;;;;;;;5044765;28;20196;-93
2023/03/01 08:35:31;;;;;;;0.77;0.77;;;;;;;;;;5038575;28;20211;-91
2023/03/01 08:38:21;;;;;;;0.07;0.07;;;;;;;;;;5017003;28;20716;-90
2023/03/01 08:40:56;;;;;;;2.20;0.80;;;;;;;;;;5026532;28;20300;-91
2023/03/01 08:43:24;;;;;;;0.43;0.30;;;;;;;;;;5023655;28;20276;-91
2023/03/01 08:46:06;;;;;;;0.53;0.27;;;;;;;;;;5037672;28;20274;-91
2023/03/01 08:48:45;;;;;;;0.00;0.00;;;;;;;;;;5029364;28;20266;-92
2023/03/01 08:51:28;;;;;;;0.63;0.10;;;;;;;;;;5034927;28;20665;-94
2023/03/01 08:54:17;;;;;;;0.40;0.40;;;;;;;;;;5035150;28;20216;-93
2023/03/01 08:56:53;;;;;;;0.10;0.10;;;;;;;;;;5034997;28;20274;-94
2023/03/01 08:59:35;;;;;;;0.37;0.37;;;;;;;;;;5035335;28;20230;-91
2023/03/01 09:02:13;;;;;;;0.93;0.30;;;;;;;;;;5033942;28;20223;-93
2023/03/01 09:04:45;;;;;;;0.10;0.10;;;;;;;;;;5034244;28;20759;-86
2023/03/01 09:07:28;;;;;;;0.43;0.23;;;;;;;;;;5036793;28;20892;-86
2023/03/01 09:09:57;;;;;;;0.20;0.20;;;;;;;;;;5036115;28;20243;-89
2023/03/01 09:12:32;;;;;;;0.40;0.40;;;;;;;;;;5036446;28;20805;-88
2023/03/01 09:15:02;;;;;;;0.30;0.30;;;;;;;;;;5037318;28;20232;-89
2023/03/01 09:17:32;;;;;;;0.50;0.50;;;;;;;;;;5033868;28;20696;-90
2023/03/01 09:20:05;;;;;;;0.10;0.10;;;;;;;;;;5033897;28;20274;-88
2023/03/01 09:22:32;;;;;;;0.00;0.00;;;;;;;;;;5033686;28;20228;-87
2023/03/01 09:27:45;;;;;;;0.20;0.20;;;;;;;;;;5023383;28;20227;-88
2023/03/01 09:30:13;;;;;;;0.40;0.40;;;;;;;;;;5031298;28;20625;-88
2023/03/01 09:32:44;;;;;;;0.30;0.30;;;;;;;;;;5033188;28;20323;-89
2023/03/01 09:35:23;;;;;;;0.37;0.37;;;;;;;;;;5043149;28;20224;-89
2023/03/01 09:37:52;;;;;;;0.20;0.20;;;;;;;;;;5051163;28;20243;-87
2023/03/01 09:40:23;;;;;;;0.20;0.20;;;;;;;;;;5050977;28;20228;-87
2023/03/01 09:43:02;;;;;;;0.30;0.30;;;;;;;;;;5051629;28;20323;-88
2023/03/01 09:45:37;;;;;;;0.23;0.23;;;;;;;;;;5037539;28;20279;-88
2023/03/01 09:48:06;;;;;;;0.20;0.20;;;;;;;;;;5022283;28;20228;-88
2023/03/01 09:50:40;;;;;;;0.50;0.50;;;;;;;;;;5013523;28;20223;-89
2023/03/01 09:53:19;;;;;;;0.07;0.07;;;;;;;;;;5013306;28;20406;-88
2023/03/01 09:55:58;;;;;;;0.00;0.00;;;;;;;;;;5013349;28;20224;-88
2023/03/01 09:58:51;;;;;;;0.00;0.00;;;;;;;;;;5013195;28;20232;-89
2023/03/01 10:01:32;;;;;;;0.10;0.10;;;;;;;;;;5012640;28;20236;-90
2023/03/01 10:04:39;;;;;;;;;;;;;;;;;;;;;
2023/03/01 10:07:14;;;;;;;0.10;0.10;;;;;;;;;;5014002;28;20220;-89
2023/03/01 10:09:53;;;;;;;0.07;0.07;;;;;;;;;;5012871;28;20672;-87
2023/03/01 10:12:25;;;;;;;1.07;0.60;;;;;;;;;;5013238;28;20708;-88
2023/03/01 10:14:59;;;;;;;0.80;0.27;;;;;;;;;;5011549;28;20259;-89
2023/03/01 10:17:33;;;;;;;0.10;0.00;;;;;;;;;;5017281;28;20233;-89
2023/03/01 10:20:19;;;;;;;0.00;0.00;;;;;;;;;;5033979;28;20610;-88
2023/03/01 10:22:55;;;;;;;0.07;0.07;;;;;;;;;;5019857;28;20224;-89
2023/03/01 10:25:41;;;;;;;0.00;0.00;;;;;;;;;;5049946;28;20216;-88
2023/03/01 10:28:17;;;;;;;0.70;0.20;;;;;;;;;;5051408;28;20220;-88
2023/03/01 10:31:03;;;;;;;1.50;0.30;;;;;;;;;;5052281;28;20787;-87
2023/03/01 10:33:39;;;;;;;0.20;0.20;;;;;;;;;;5053290;28;20220;-88
2023/03/01 10:36:18;;;;;;;0.10;0.10;;;;;;;;;;5041814;28;20231;-90
2023/03/01 10:39:00;;;;;;;5.00;0.30;;;;;;;;;;5041837;28;20224;-89
2023/03/01 10:41:28;;;;;;;0.20;0.20;;;;;;;;;;5048510;28;20222;-87
2023/03/01 10:43:57;;;;;;;0.10;0.10;;;;;;;;;;5050596;28;20216;-87
2023/03/01 10:46:39;;;;;;;0.00;0.00;;;;;;;;;;5048884;28;20295;-86
2023/03/01 10:49:09;;;;;;;0.00;0.00;;;;;;;;;;5050008;28;20227;-86
2023/03/01 10:51:45;;;;;;;0.33;0.30;;;;;;;;;;5045577;28;20232;-87
2023/03/01 10:54:20;;;;;;;0.30;0.30;;;;;;;;;;5037310;28;20220;-89
2023/03/01 10:56:49;;;;;;;0.73;0.17;;;;;;;;;;5032291;28;20262;-85
2023/03/01 10:59:38;;;;;;;0.50;0.50;;;;;;;;;;5031668;28;20231;-89
2023/03/01 11:02:22;;;;;;;0.20;0.20;;;;;;;;;;5030419;28;20242;-91
2023/03/01 11:05:01;;;;;;;0.47;0.27;;;;;;;;;;5031290;28;20745;-88
2023/03/01 11:07:29;;;;;;;0.17;0.13;;;;;;;;;;5031816;28;20223;-86
2023/03/01 11:09:59;;;;;;;0.00;0.00;;;;;;;;;;5032215;28;20428;-89
2023/03/01 11:12:29;;;;;;;1.13;0.17;;;;;;;;;;5031938;28;20286;-88
2023/03/01 11:14:58;;;;;;;0.03;0.03;;;;;;;;;;5031942;28;20228;-88
2023/03/01 11:17:32;;;;;;;0.10;0.10;;;;;;;;;;5036358;28;20604;-90
2023/03/01 11:20:06;;;;;;;0.20;0.20;;;;;;;;;;5051909;28;20222;-88
2023/03/01 11:22:39;;;;;;;4.90;0.47;;;;;;;;;;5052107;28;20654;-88
2023/03/01 11:25:07;;;;;;;1.60;0.80;;;;;;;;;;5052559;28;20306;-88
2023/03/01 11:27:38;;;;;;;0.10;0.10;;;;;;;;;;5051040;28;20223;-87
2023/03/01 11:30:07;;;;;;;0.10;0.10;;;;;;;;;;5050379;28;20788;-87
2023/03/01 11:32:41;;;;;;;0.77;0.63;;;;;;;;;;5050973;28;20304;-87
2023/03/01 11:35:13;;;;;;;0.33;0.20;;;;;;;;;;5051391;28;20245;-89
2023/03/01 11:37:44;;;;;;;0.23;0.23;;;;;;;;;;5051115;28;20239;-89
2023/03/01 11:40:16;;;;;;;0.13;0.13;;;;;;;;;;5050858;28;20781;-89
2023/03/01 11:42:57;;;;;;;0.20;0.20;;;;;;;;;;5051195;28;20227;-87
2023/03/01 11:45:32;;;;;;;0.20;0.20;;;;;;;;;;5051010;28;20222;-87
2023/03/01 11:48:17;;;;;;;0.00;0.00;;;;;;;;;;5041333;28;20308;-88
2023/03/01 11:50:50;;;;;;;0.10;0.10;;;;;;;;;;5000653;28;20228;-88
2023/03/01 11:53:24;;;;;;;0.00;0.00;;;;;;;;;;5030557;28;20224;-86
2023/03/01 11:56:03;;;;;;;2.17;0.20;;;;;;;;;;5031811;28;20254;-88
2023/03/01 11:58:45;;;;;;;0.27;0.27;;;;;;;;;;5030553;28;20680;-88
2023/03/01 12:01:31;;;;;;;0.73;0.73;;;;;;;;;;5030542;28;20228;-86
2023/03/01 12:04:10;;;;;;;0.20;0.20;;;;;;;;;;5024551;28;20842;-90
2023/03/01 12:06:50;;;;;;;0.47;0.47;;;;;;;;;;5030931;28;20779;-89
2023/03/01 12:09:43;;;;;;;0.30;0.30;;;;;;;;;;5031549;28;20789;-89
2023/03/01 12:15:38;;;;;;;0.67;0.20;;;;;;;;;;4969478;28;20222;-89
2023/03/01 12:18:14;;;;;;;1.00;0.57;;;;;;;;;;4981054;28;20241;-89
2023/03/01 12:20:49;;;;;;;0.53;0.53;;;;;;;;;;4992630;28;20283;-90
2023/03/01 12:23:28;;;;;;;0.37;0.37;;;;;;;;;;4988102;28;20229;-89
2023/03/01 12:26:03;;;;;;;0.20;0.20;;;;;;;;;;4992521;28;20231;-88
2023/03/01 12:28:42;;;;;;;0.20;0.20;;;;;;;;;;4987842;28;20701;-89
2023/03/01 12:31:27;;;;;;;0.00;0.00;;;;;;;;;;5048894;28;20979;-88
2023/03/01 12:34:00;;;;;;;0.10;0.10;;;;;;;;;;5049534;28;20233;-89
2023/03/01 12:36:42;;;;;;;0.10;0.10;;;;;;;;;;5035520;28;20235;-88
2023/03/01 12:39:25;;;;;;;0.20;0.13;;;;;;;;;;5031286;28;20290;-88
2023/03/01 12:42:12;;;;;;;0.20;0.10;;;;;;;;;;5035787;28;20615;-88
2023/03/01 12:45:08;;;;;;;;;;;;;;;;;;;;;
2023/03/01 12:47:44;;;;;;;0.40;0.40;;;;;;;;;;5017791;28;20612;-88
2023/03/01 12:50:20;;;;;;;0.50;0.40;;;;;;;;;;5016411;28;20203;-86
2023/03/01 12:52:52;;;;;;;0.17;0.17;;;;;;;;;;5015193;28;20270;-89
2023/03/01 12:55:40;;;;;;;0.33;0.33;;;;;;;;;;5014863;28;20714;-88
2023/03/01 12:58:16;;;;;;;0.37;0.13;;;;;;;;;;5014731;28;20236;-89
2023/03/01 13:00:59;;;;;;;2.60;0.40;;;;;;;;;;5017277;28;20263;-88
2023/03/01 13:03:31;;;;;;;0.80;0.40;;;;;;;;;;5018018;28;20192;-87
2023/03/01 13:06:04;;;;;;;1.97;0.53;;;;;;;;;;5016251;28;20207;-89
2023/03/01 13:08:38;;;;;;;0.10;0.10;;;;;;;;;;5017073;28;20275;-88
2023/03/01 13:11:18;;;;;;;0.13;0.13;;;;;;;;;;5016187;28;20250;-89
2023/03/01 13:13:54;;;;;;;0.47;0.47;;;;;;;;;;5017026;28;20225;-89
2023/03/01 13:16:48;;;;;;;0.53;0.23;;;;;;;;;;5016424;28;20200;-88
2023/03/01 13:19:52;;;;;;;0.20;0.20;;;;;;;;;;5017039;28;20263;-90
2023/03/01 13:22:40;;;;;;;2.77;0.20;;;;;;;;;;5016016;28;20216;-89
2023/03/01 13:25:24;;;;;;;0.20;0.20;;;;;;;;;;5019050;28;20207;-89
2023/03/01 13:28:26;;;;;;;0.10;0.10;;;;;;;;;;5014267;28;20284;-89
2023/03/01 13:31:08;;;;;;;0.63;0.27;;;;;;;;;;5014556;28;20239;-89
2023/03/01 13:33:46;;;;;;;0.10;0.10;;;;;;;;;;5014112;28;20632;-87
2023/03/01 13:36:52;;;;;;;0.00;0.00;;;;;;;;;;5014175;28;20196;-88
2023/03/01 13:39:32;;;;;;;0.47;0.47;;;;;;;;;;5015141;28;20263;-89
2023/03/01 13:47:46;;;;;;;0.67;0.43;;;;;;;;;;5013365;28;20201;-87
2023/03/01 13:50:36;;;;;;;0.27;0.23;;;;;;;;;;5014372;28;20220;-88
2023/03/01 13:53:08;;;;;;;0.00;0.00;;;;;;;;;;5014224;28;20192;-89
2023/03/01 13:55:45;;;;;;;0.20;0.20;;;;;;;;;;5015298;28;20720;-88
2023/03/01 13:58:25;;;;;;;0.07;0.07;;;;;;;;;;5014280;28;20306;-89
2023/03/01 14:01:08;;;;;;;0.73;0.57;;;;;;;;;;5014371;28;20211;-87
2023/03/01 14:03:47;;;;;;;0.47;0.20;;;;;;;;;;5014494;28;20189;-88
2023/03/01 14:06:25;;;;;;;0.30;0.30;;;;;;;;;;5014319;28;20197;-89
2023/03/01 14:09:03;;;;;;;0.93;0.27;;;;;;;;;;5013581;28;20200;-86
2023/03/01 14:11:52;;;;;;;0.63;0.20;;;;;;;;;;5013940;28;20431;-86
2023/03/01 14:14:35;;;;;;;0.13;0.13;;;;;;;;;;5016339;28;20204;-89
2023/03/01 14:17:09;;;;;;;0.47;0.03;;;;;;;;;;5031625;28;20672;-88
2023/03/01 14:19:38;;;;;;;0.10;0.10;;;;;;;;;;5033953;28;20575;-88
2023/03/01 14:22:15;;;;;;;0.10;0.10;;;;;;;;;;5034297;28;20207;-88
2023/03/01 14:24:46;;;;;;;0.00;0.00;;;;;;;;;;5033396;28;20200;-88
2023/03/01 14:27:21;;;;;;;0.00;0.00;;;;;;;;;;5034361;28;20204;-88
2023/03/01 14:30:04;;;;;;;0.30;0.30;;;;;;;;;;5033584;28;20754;-89
2023/03/01 14:32:35;;;;;;;0.30;0.30;;;;;;;;;;5048438;28;20196;-88
2023/03/01 14:35:21;;;;;;;0.00;0.00;;;;;;;;;;5032260;28;20219;-87
2023/03/01 14:37:51;;;;;;;0.47;0.20;;;;;;;;;;5040768;28;20270;-89
2023/03/01 14:40:59;;;;;;;0.37;0.37;;;;;;;;;;5041217;28;20236;-88
2023/03/01 14:43:52;;;;;;;0.40;0.40;;;;;;;;;;5032281;28;20307;-87
2023/03/01 14:46:36;;;;;;;;;;;;;;;;;;;;;
2023/03/01 14:49:19;;;;;;;1.80;0.97;;;;;;;;;;5034492;28;20227;-86
2023/03/01 14:51:56;;;;;;;0.10;0.10;;;;;;;;;;5017563;28;20193;-88
2023/03/01 14:54:31;;;;;;;0.00;0.00;;;;;;;;;;5028365;28;20228;-88
2023/03/01 14:57:05;;;;;;;0.40;0.40;;;;;;;;;;5030646;28;20244;-87
2023/03/01 14:59:34;;;;;;;0.30;0.30;;;;;;;;;;5031420;28;20236;-89
2023/03/01 15:02:27;;;;;;;;;;;;;;;;;;;;;
2023/03/01 15:05:08;;;;;;;0.30;0.30;;;;;;;;;;5027428;28;20225;-88
2023/03/01 15:07:37;;;;;;;0.10;0.10;;;;;;;;;;5032539;28;20227;-87
2023/03/01 15:10:06;;;;;;;0.30;0.30;;;;;;;;;;5055735;28;20231;-88
2023/03/01 15:12:40;;;;;;;1.43;0.43;;;;;;;;;;5054193;28;20730;-88
2023/03/01 15:15:29;;;;;;;0.17;0.17;;;;;;;;;;5057967;28;20195;-87
2023/03/01 15:18:01;;;;;;;0.20;0.20;;;;;;;;;;5057647;28;20226;-89
2023/03/01 15:20:35;;;;;;;0.10;0.10;;;;;;;;;;5055646;28;20324;-89
2023/03/01 15:23:06;;;;;;;0.10;0.10;;;;;;;;;;5055443;28;20260;-89
2023/03/01 15:25:35;;;;;;;0.57;0.57;;;;;;;;;;5053489;28;20199;-88
2023/03/01 15:28:03;;;;;;;0.20;0.20;;;;;;;;;;5053460;28;20207;-89
2023/03/01 15:30:37;;;;;;;0.00;0.00;;;;;;;;;;5053593;28;20585;-89
2023/03/01 15:33:24;;;;;;;0.77;0.23;;;;;;;;;;5052498;28;20236;-89
2023/03/01 15:36:06;;;;;;;0.10;0.10;;;;;;;;;;5046015;28;20726;-88
2023/03/01 15:38:40;;;;;;;0.33;0.33;;;;;;;;;;5052831;28;20227;-90
2023/03/01 15:41:25;;;;;;;0.33;0.13;;;;;;;;;;5054001;28;20199;-88
2023/03/01 15:43:57;;;;;;;0.10;0.10;;;;;;;;;;5058054;28;20203;-89
2023/03/01 15:46:34;;;;;;;0.10;0.10;;;;;;;;;;5053440;28;20202;-89
2023/03/01 15:49:04;;;;;;;0.10;0.10;;;;;;;;;;5052387;28;20600;-89
2023/03/01 15:51:45;;;;;;;0.10;0.10;;;;;;;;;;5052763;28;20199;-89
2023/03/01 15:54:20;;;;;;;0.10;0.10;;;;;;;;;;5051815;28;20223;-88
2023/03/01 15:56:48;;;;;;;0.30;0.30;;;;;;;;;;5043327;28;20182;-89
2023/03/01 15:59:15;;;;;;;0.07;0.07;;;;;;;;;;5051256;28;20222;-90
2023/03/01 16:01:45;;;;;;;0.00;0.00;;;;;;;;;;5050889;28;20210;-87
2023/03/01 16:04:20;;;;;;;0.07;0.07;;;;;;;;;;5050815;28;20199;-90
2023/03/01 16:06:58;;;;;;;0.07;0.07;;;;;;;;;;5054091;28;20205;-89
2023/03/01 16:09:28;;;;;;;0.20;0.20;;;;;;;;;;5052630;28;20249;-89
2023/03/01 16:11:57;;;;;;;0.33;0.10;;;;;;;;;;5050361;28;20239;-90
2023/03/01 16:14:25;;;;;;;0.87;0.30;;;;;;;;;;5050131;28;20230;-88
2023/03/01 16:16:52;;;;;;;0.27;0.27;;;;;;;;;;5049892;28;20290;-90
2023/03/01 16:19:27;;;;;;;0.70;0.20;;;;;;;;;;5050620;28;20223;-88
2023/03/01 16:21:57;;;;;;;2.27;1.23;;;;;;;;;;5049921;28;20207;-88
2023/03/01 16:24:30;;;;;;;1.20;1.13;;;;;;;;;;5050656;28;20201;-91
2023/03/01 16:27:03;;;;;;;0.10;0.10;;;;;;;;;;5051641;28;20663;-88
2023/03/01 16:29:31;;;;;;;0.40;0.40;;;;;;;;;;5059126;28;20218;-87
2023/03/01 16:32:02;;;;;;;0.10;0.10;;;;;;;;;;5056045;28;20218;-89
2023/03/01 16:34:30;;;;;;;1.23;0.53;;;;;;;;;;5056468;28;20207;-88